Time;durP1;ratioP1;P1;durP2;ratioP2;P2;SDS_P1;SDS_P2;PMS_P1;PMS_P2;Temp;Humidity;BMP_temperature;BMP_pressure;BME280_temperature;BME280_humidity;BME280_pressure;Samples;Min_cycle;Max_cycle;Signal;HPM_P1;HPM_P2
2023/05/14 00:00:14;;;;;;;27.27;14.32;;;11.60;99.90;;;;;;4997082;28;20136;-74
2023/05/14 00:02:40;;;;;;;26.85;14.15;;;11.60;99.90;;;;;;4996713;28;20046;-74
2023/05/14 00:05:07;;;;;;;31.25;13.27;;;11.60;99.90;;;;;;4998188;28;20085;-75
2023/05/14 00:07:32;;;;;;;28.08;13.80;;;11.60;99.90;;;;;;4980330;28;20064;-74
2023/05/14 00:09:59;;;;;;;26.63;12.98;;;11.60;99.90;;;;;;4998221;28;20129;-75
2023/05/14 00:12:25;;;;;;;31.10;13.27;;;11.60;99.90;;;;;;4996685;28;20094;-75
2023/05/14 00:14:51;;;;;;;25.02;13.60;;;11.50;99.90;;;;;;4996787;28;20047;-74
2023/05/14 00:17:17;;;;;;;27.48;12.77;;;11.60;99.90;;;;;;4979522;28;20129;-74
2023/05/14 00:19:43;;;;;;;32.92;15.02;;;11.50;99.90;;;;;;4996919;28;20163;-75
2023/05/14 00:22:09;;;;;;;27.17;14.18;;;11.50;99.90;;;;;;4996528;28;20050;-75
2023/05/14 00:24:35;;;;;;;32.43;14.60;;;11.40;99.90;;;;;;4979030;28;20478;-74
2023/05/14 00:27:01;;;;;;;26.40;12.55;;;11.40;99.90;;;;;;4980109;28;20046;-74
2023/05/14 00:29:27;;;;;;;28.93;14.17;;;11.40;99.90;;;;;;4996344;28;20069;-75
2023/05/14 00:31:53;;;;;;;29.50;13.45;;;11.40;99.90;;;;;;4996651;28;20281;-76
2023/05/14 00:34:18;;;;;;;27.75;12.23;;;11.40;99.90;;;;;;4979770;28;20050;-75
2023/05/14 00:36:44;;;;;;;29.88;14.73;;;11.40;99.90;;;;;;4997018;28;20042;-74
2023/05/14 00:39:10;;;;;;;29.25;13.55;;;11.40;99.90;;;;;;4996479;28;20121;-75
2023/05/14 00:41:35;;;;;;;27.95;13.23;;;11.30;99.90;;;;;;4995887;28;20493;-74
2023/05/14 00:44:01;;;;;;;26.30;14.02;;;11.40;99.90;;;;;;4978547;28;20042;-74
2023/05/14 00:46:27;;;;;;;25.20;12.20;;;11.30;99.90;;;;;;4995735;28;20089;-75
2023/05/14 00:48:53;;;;;;;26.52;12.35;;;11.30;99.90;;;;;;4995877;28;20050;-75
2023/05/14 00:51:19;;;;;;;30.95;13.05;;;11.30;99.90;;;;;;4978341;28;20107;-75
2023/05/14 00:53:46;;;;;;;29.20;13.07;;;11.30;99.90;;;;;;4995706;28;20402;-74
2023/05/14 00:56:14;;;;;;;32.35;13.20;;;11.30;99.90;;;;;;4995718;28;20133;-74
2023/05/14 00:58:39;;;;;;;31.75;15.38;;;11.20;99.90;;;;;;4978219;28;20057;-74
2023/05/14 01:01:05;;;;;;;27.77;14.00;;;11.20;99.90;;;;;;4978184;28;20133;-74
2023/05/14 01:03:32;;;;;;;26.52;12.70;;;11.20;99.90;;;;;;4995294;28;20068;-75
2023/05/14 01:06:08;;;;;;;34.75;14.07;;;11.20;99.90;;;;;;4978050;28;20042;-75
2023/05/14 01:08:55;;;;;;;27.80;14.02;;;11.10;99.90;;;;;;4977746;28;20055;-74
2023/05/14 01:11:43;;;;;;;24.38;12.48;;;11.10;99.90;;;;;;4995593;28;20047;-74
2023/05/14 01:14:36;;;;;;;27.92;12.35;;;11.10;99.90;;;;;;4962622;28;20053;-75
2023/05/14 01:17:05;;;;;;;22.83;11.57;;;11.00;99.90;;;;;;4961877;28;20066;-75
2023/05/14 01:19:40;;;;;;;35.08;13.80;;;11.00;99.90;;;;;;4978117;28;20117;-75
2023/05/14 01:22:06;;;;;;;27.95;12.40;;;10.90;99.90;;;;;;4995182;28;20042;-74
2023/05/14 01:24:32;;;;;;;26.98;12.90;;;10.90;99.90;;;;;;4995058;28;20046;-75
2023/05/14 01:27:10;;;;;;;27.48;14.07;;;10.90;99.90;;;;;;4995004;28;20042;-74
2023/05/14 01:29:39;;;;;;;27.55;13.93;;;10.90;99.90;;;;;;4994681;28;20602;-73
2023/05/14 01:32:07;;;;;;;31.98;13.88;;;10.80;99.90;;;;;;4994813;28;20050;-74
2023/05/14 01:34:35;;;;;;;29.00;13.75;;;10.80;99.90;;;;;;4994856;28;20117;-74
2023/05/14 01:37:01;;;;;;;33.03;15.88;;;10.80;99.90;;;;;;4994912;28;20526;-74
2023/05/14 01:39:29;;;;;;;26.90;14.50;;;10.80;99.90;;;;;;4994738;28;20042;-75
2023/05/14 01:41:55;;;;;;;28.70;12.93;;;10.70;99.90;;;;;;4977320;28;20543;-75
2023/05/14 01:44:21;;;;;;;28.00;13.18;;;10.70;99.90;;;;;;4995872;28;20356;-74
2023/05/14 01:46:46;;;;;;;30.70;12.18;;;10.60;99.90;;;;;;4994546;28;20038;-76
2023/05/14 01:49:12;;;;;;;31.73;13.18;;;10.60;99.90;;;;;;4995237;28;20046;-74
2023/05/14 01:51:38;;;;;;;28.05;13.30;;;10.60;99.90;;;;;;4994589;28;20046;-75
2023/05/14 01:54:03;;;;;;;30.05;13.07;;;10.50;99.90;;;;;;4977413;28;20385;-75
2023/05/14 01:56:29;;;;;;;29.35;13.95;;;10.50;99.90;;;;;;4961361;28;20065;-76
2023/05/14 01:58:55;;;;;;;28.98;13.27;;;10.50;99.90;;;;;;4961371;28;20050;-76
2023/05/14 02:01:21;;;;;;;33.35;14.35;;;10.40;99.90;;;;;;4977981;28;20050;-76
2023/05/14 02:03:47;;;;;;;33.03;13.90;;;10.40;99.90;;;;;;4978037;28;20049;-75
2023/05/14 02:06:13;;;;;;;24.95;12.43;;;10.40;99.90;;;;;;4994467;28;20046;-76
2023/05/14 02:08:38;;;;;;;29.42;13.18;;;10.40;99.90;;;;;;4960593;28;20418;-74
2023/05/14 02:11:04;;;;;;;33.72;13.63;;;10.30;99.90;;;;;;4977131;28;20046;-73
2023/05/14 02:13:30;;;;;;;33.45;15.10;;;10.30;99.90;;;;;;4994868;28;20046;-75
2023/05/14 02:15:56;;;;;;;29.50;14.35;;;10.30;99.90;;;;;;4977029;28;20046;-78
2023/05/14 02:18:21;;;;;;;31.65;15.30;;;10.30;99.90;;;;;;4994287;28;20046;-74
2023/05/14 02:20:47;;;;;;;32.50;14.43;;;10.30;99.90;;;;;;4977860;28;20115;-74
2023/05/14 02:23:12;;;;;;;30.42;14.13;;;10.30;99.90;;;;;;4977907;28;20448;-74
2023/05/14 02:25:38;;;;;;;29.13;12.77;;;10.20;99.90;;;;;;4976201;28;20046;-74
2023/05/14 02:28:04;;;;;;;29.40;13.60;;;10.30;99.90;;;;;;4994181;28;20043;-75
2023/05/14 02:30:30;;;;;;;29.52;14.15;;;10.20;99.90;;;;;;4977286;28;20042;-75
2023/05/14 02:32:56;;;;;;;37.75;14.23;;;10.20;99.90;;;;;;4977561;28;20090;-75
2023/05/14 02:35:22;;;;;;;31.20;15.20;;;10.20;99.90;;;;;;4994349;28;20054;-75
2023/05/14 02:37:48;;;;;;;33.55;13.98;;;10.20;99.90;;;;;;4977577;28;20368;-75
2023/05/14 02:40:14;;;;;;;32.67;14.05;;;10.20;99.90;;;;;;4961503;28;20131;-75
2023/05/14 02:42:39;;;;;;;32.35;14.15;;;10.20;99.90;;;;;;4976568;28;20474;-74
2023/05/14 02:45:05;;;;;;;34.20;13.57;;;10.20;99.90;;;;;;4976898;28;20050;-74
2023/05/14 02:47:31;;;;;;;30.17;15.23;;;10.20;99.90;;;;;;4976626;28;20482;-74
2023/05/14 02:49:57;;;;;;;29.17;13.50;;;10.20;99.90;;;;;;4993997;28;20093;-75
2023/05/14 02:52:23;;;;;;;24.50;13.38;;;10.10;99.90;;;;;;4976540;28;20045;-75
2023/05/14 02:54:49;;;;;;;32.25;14.13;;;10.10;99.90;;;;;;4993896;28;20065;-76
2023/05/14 02:57:14;;;;;;;29.23;14.60;;;10.10;99.90;;;;;;4976553;28;20050;-75
2023/05/14 02:59:40;;;;;;;28.35;12.90;;;10.10;99.90;;;;;;4976623;28;20053;-76
2023/05/14 03:02:06;;;;;;;30.95;13.45;;;10.10;99.90;;;;;;4976540;28;20046;-75
2023/05/14 03:04:31;;;;;;;26.60;13.45;;;10.10;99.90;;;;;;4993854;28;20474;-75
2023/05/14 03:06:57;;;;;;;30.88;13.85;;;10.10;99.90;;;;;;4961080;28;20054;-75
2023/05/14 03:09:23;;;;;;;28.75;13.85;;;10.10;99.90;;;;;;4976598;28;20054;-74
2023/05/14 03:11:49;;;;;;;28.70;13.68;;;10.10;99.90;;;;;;4976413;28;20050;-75
2023/05/14 03:14:15;;;;;;;31.15;14.00;;;10.10;99.90;;;;;;4993746;28;20494;-74
2023/05/14 03:16:41;;;;;;;35.80;16.48;;;10.00;99.90;;;;;;4976448;28;20054;-74
2023/05/14 03:19:08;;;;;;;39.50;18.67;;;10.10;99.90;;;;;;4977412;28;20128;-75
2023/05/14 03:21:34;;;;;;;36.20;15.88;;;10.10;99.90;;;;;;4993970;28;20497;-74
2023/05/14 03:24:00;;;;;;;29.33;13.75;;;10.10;99.90;;;;;;4993630;28;20047;-74
2023/05/14 03:26:26;;;;;;;27.58;13.80;;;10.00;99.90;;;;;;4993732;28;20050;-75
2023/05/14 03:28:51;;;;;;;33.20;14.48;;;10.00;99.90;;;;;;4994143;28;20188;-73
2023/05/14 03:31:17;;;;;;;29.05;14.10;;;10.00;99.90;;;;;;4976622;28;20093;-76
2023/05/14 03:33:43;;;;;;;31.70;14.95;;;10.00;99.90;;;;;;4976556;28;20368;-74
2023/05/14 03:36:09;;;;;;;31.25;14.65;;;10.00;99.90;;;;;;4960414;28;20062;-75
2023/05/14 03:38:35;;;;;;;33.47;14.93;;;10.00;99.90;;;;;;4979091;28;20058;-75
2023/05/14 03:41:01;;;;;;;29.60;15.20;;;10.00;99.90;;;;;;4997122;28;20050;-75
2023/05/14 03:43:27;;;;;;;35.55;14.90;;;10.00;99.90;;;;;;4980399;28;20046;-75
2023/05/14 03:45:52;;;;;;;35.80;16.80;;;10.00;99.90;;;;;;4997455;28;20449;-74
2023/05/14 03:48:19;;;;;;;32.55;14.55;;;10.00;99.90;;;;;;4983361;28;20046;-75
2023/05/14 03:50:45;;;;;;;29.88;14.88;;;9.90;99.90;;;;;;4966905;28;20376;-75
2023/05/14 03:53:11;;;;;;;31.13;14.10;;;9.90;99.90;;;;;;4999478;28;20058;-74
2023/05/14 03:55:37;;;;;;;30.63;15.07;;;9.90;99.90;;;;;;4999399;28;20034;-74
2023/05/14 03:58:06;;;;;;;28.55;14.20;;;9.90;99.90;;;;;;4982012;28;20050;-74
2023/05/14 04:00:32;;;;;;;32.97;15.43;;;9.90;99.90;;;;;;4998590;28;20054;-74
2023/05/14 04:02:58;;;;;;;33.45;14.00;;;9.90;99.90;;;;;;4980091;28;20434;-72
2023/05/14 04:05:23;;;;;;;33.33;15.25;;;9.80;99.90;;;;;;4996613;28;20086;-75
2023/05/14 04:07:51;;;;;;;32.03;17.52;;;9.80;99.90;;;;;;4996461;28;20097;-75
2023/05/14 04:10:17;;;;;;;34.20;15.82;;;9.90;99.90;;;;;;4979631;28;20049;-75
2023/05/14 04:12:43;;;;;;;30.80;15.02;;;9.80;99.90;;;;;;4963078;28;20046;-74
2023/05/14 04:15:09;;;;;;;29.67;14.90;;;9.80;99.90;;;;;;4996715;28;20474;-75
2023/05/14 04:17:35;;;;;;;30.73;15.60;;;9.80;99.90;;;;;;4979264;28;20100;-76
2023/05/14 04:20:00;;;;;;;33.72;16.27;;;9.90;99.90;;;;;;4996559;28;20125;-74
2023/05/14 04:22:26;;;;;;;24.65;14.15;;;9.90;99.90;;;;;;4979496;28;20532;-74
2023/05/14 04:24:52;;;;;;;32.72;15.32;;;9.90;99.90;;;;;;4996688;28;20058;-75
2023/05/14 04:27:21;;;;;;;32.05;15.73;;;9.80;99.90;;;;;;4996791;28;20372;-75
2023/05/14 04:29:48;;;;;;;36.92;14.98;;;9.90;99.90;;;;;;4996473;28;20050;-75
2023/05/14 04:32:13;;;;;;;27.60;14.25;;;10.00;99.90;;;;;;4996171;28;20474;-75
2023/05/14 04:34:40;;;;;;;31.30;15.27;;;9.90;99.90;;;;;;4978915;28;20137;-75
2023/05/14 04:37:06;;;;;;;31.98;14.65;;;10.00;99.90;;;;;;4978718;28;20038;-74
2023/05/14 04:39:31;;;;;;;32.50;14.82;;;10.00;99.90;;;;;;4995994;28;20497;-74
2023/05/14 04:41:57;;;;;;;34.08;15.38;;;10.10;99.90;;;;;;4995692;28;20057;-76
2023/05/14 04:44:23;;;;;;;32.30;15.25;;;10.10;99.90;;;;;;4979493;28;20161;-74
2023/05/14 04:46:48;;;;;;;30.55;14.20;;;10.20;99.90;;;;;;4979348;28;20138;-76
2023/05/14 04:49:14;;;;;;;28.20;14.55;;;10.30;99.90;;;;;;4995520;28;20069;-75
2023/05/14 04:51:40;;;;;;;32.40;15.65;;;10.30;99.90;;;;;;4978479;28;20049;-75
2023/05/14 04:54:06;;;;;;;31.42;14.35;;;10.30;99.90;;;;;;4995861;28;20446;-74
2023/05/14 04:56:31;;;;;;;28.88;13.75;;;10.40;99.90;;;;;;4979060;28;20459;-75
2023/05/14 04:58:57;;;;;;;28.15;13.45;;;10.50;99.90;;;;;;4979178;28;20054;-75
2023/05/14 05:01:23;;;;;;;28.90;14.00;;;10.60;99.90;;;;;;4978323;28;20046;-74
2023/05/14 05:03:50;;;;;;;27.17;13.70;;;10.70;99.90;;;;;;4962374;28;20054;-75
2023/05/14 05:06:15;;;;;;;36.50;15.52;;;10.70;99.90;;;;;;4978641;28;20394;-76
2023/05/14 05:08:41;;;;;;;26.65;13.80;;;10.80;99.90;;;;;;4995324;28;20142;-75
2023/05/14 05:11:07;;;;;;;23.52;13.45;;;10.80;99.90;;;;;;4978044;28;20125;-75
2023/05/14 05:13:33;;;;;;;25.98;12.77;;;10.80;99.90;;;;;;4962095;28;20085;-75
2023/05/14 05:15:58;;;;;;;25.02;12.95;;;10.90;99.90;;;;;;4995972;28;20050;-75
2023/05/14 05:18:24;;;;;;;24.10;13.15;;;10.90;99.90;;;;;;4995329;28;20086;-73
2023/05/14 05:20:50;;;;;;;24.95;12.32;;;11.00;99.90;;;;;;4977913;28;20506;-74
2023/05/14 05:23:16;;;;;;;25.83;12.23;;;11.00;99.90;;;;;;4961647;28;20038;-73
2023/05/14 05:25:41;;;;;;;26.45;13.23;;;11.10;99.90;;;;;;4995077;28;20046;-74
2023/05/14 05:28:07;;;;;;;26.63;13.88;;;11.20;99.90;;;;;;4961777;28;20057;-75
2023/05/14 05:30:33;;;;;;;28.88;15.05;;;11.30;99.90;;;;;;4995824;28;20047;-74
2023/05/14 05:32:59;;;;;;;28.83;13.68;;;11.40;99.90;;;;;;4961345;28;20053;-74
2023/05/14 05:35:24;;;;;;;28.00;13.85;;;11.50;99.90;;;;;;4961711;28;20057;-75
2023/05/14 05:37:50;;;;;;;23.65;11.88;;;11.50;99.90;;;;;;4994880;28;20101;-74
2023/05/14 05:40:16;;;;;;;23.42;12.52;;;11.60;99.90;;;;;;4995061;28;20064;-75
2023/05/14 05:42:42;;;;;;;20.98;11.10;;;11.70;99.90;;;;;;4994758;28;20457;-74
2023/05/14 05:45:08;;;;;;;21.63;11.70;;;11.90;99.90;;;;;;4961309;28;20128;-73
2023/05/14 05:47:33;;;;;;;24.17;11.35;;;12.00;99.90;;;;;;4977833;28;20394;-75
2023/05/14 05:49:59;;;;;;;22.50;11.77;;;12.10;99.90;;;;;;4961382;28;20053;-73
2023/05/14 05:52:25;;;;;;;21.73;10.93;;;12.20;99.90;;;;;;4994666;28;20042;-74
2023/05/14 05:54:51;;;;;;;21.83;11.32;;;12.30;99.90;;;;;;4977989;28;20038;-75
2023/05/14 05:57:17;;;;;;;21.60;11.60;;;12.30;99.90;;;;;;4994800;28;20104;-73
2023/05/14 05:59:42;;;;;;;19.13;10.23;;;12.40;99.90;;;;;;4994529;28;20050;-75
2023/05/14 06:02:08;;;;;;;19.45;11.63;;;12.50;99.90;;;;;;4959719;28;20050;-73
2023/05/14 06:04:34;;;;;;;19.83;10.40;;;12.60;99.90;;;;;;4977412;28;20046;-75
2023/05/14 06:06:59;;;;;;;18.55;10.55;;;12.60;99.90;;;;;;4960794;28;20062;-76
2023/05/14 06:09:25;;;;;;;20.70;12.18;;;12.70;99.90;;;;;;4977954;28;20051;-73
2023/05/14 06:11:51;;;;;;;18.60;11.40;;;12.70;99.90;;;;;;4994862;28;20533;-74
2023/05/14 06:14:17;;;;;;;22.00;11.07;;;12.70;99.90;;;;;;4960981;28;20125;-73
2023/05/14 06:16:43;;;;;;;28.80;11.90;;;12.80;99.90;;;;;;4994051;28;20486;-76
2023/05/14 06:19:08;;;;;;;20.80;11.00;;;12.80;99.90;;;;;;4994007;28;20065;-77
2023/05/14 06:21:34;;;;;;;21.25;10.30;;;12.80;99.90;;;;;;4994083;28;20088;-75
2023/05/14 06:24:00;;;;;;;19.25;10.10;;;13.00;99.90;;;;;;4994703;28;20046;-74
2023/05/14 06:26:26;;;;;;;19.98;9.75;;;13.10;99.90;;;;;;4993797;28;20120;-75
2023/05/14 06:28:51;;;;;;;20.60;10.20;;;13.40;99.90;;;;;;4994187;28;20047;-75
2023/05/14 06:31:17;;;;;;;18.00;9.43;;;13.50;99.90;;;;;;4976605;28;20046;-73
2023/05/14 06:33:44;;;;;;;17.53;9.37;;;13.70;99.90;;;;;;4976778;28;20050;-75
2023/05/14 06:36:10;;;;;;;19.23;10.40;;;13.70;99.90;;;;;;4994330;28;20050;-73
2023/05/14 06:38:36;;;;;;;19.42;10.23;;;13.70;99.90;;;;;;4960956;28;20050;-72
2023/05/14 06:41:01;;;;;;;16.73;9.35;;;13.70;99.90;;;;;;4976710;28;20533;-74
2023/05/14 06:43:27;;;;;;;19.67;10.50;;;13.80;99.90;;;;;;4977499;28;20101;-74
2023/05/14 06:45:53;;;;;;;19.95;9.43;;;13.80;99.90;;;;;;4976399;28;20089;-76
2023/05/14 06:48:20;;;;;;;18.40;9.27;;;13.90;99.90;;;;;;4976368;28;20058;-75
2023/05/14 06:50:47;;;;;;;16.83;9.60;;;14.00;99.90;;;;;;4993752;28;20050;-75
2023/05/14 06:53:12;;;;;;;;;;;14.20;99.90;;;;;;4960945;28;20058;-75
2023/05/14 06:55:38;;;;;;;18.03;9.13;;;14.10;99.90;;;;;;4994612;28;19925;-76
2023/05/14 06:58:07;;;;;;;18.20;9.35;;;14.10;99.90;;;;;;4994032;28;20050;-75
2023/05/14 07:00:33;;;;;;;20.02;8.63;;;14.30;99.90;;;;;;4976454;28;20384;-73
2023/05/14 07:02:59;;;;;;;16.65;9.57;;;14.50;99.90;;;;;;4993710;28;20062;-75
2023/05/14 07:05:25;;;;;;;18.67;9.52;;;14.70;99.90;;;;;;4993657;28;20121;-76
2023/05/14 07:07:51;;;;;;;19.98;9.40;;;14.80;99.90;;;;;;4976260;28;20046;-75
2023/05/14 07:10:16;;;;;;;19.17;9.68;;;15.00;99.90;;;;;;4993685;28;20079;-75
2023/05/14 07:12:43;;;;;;;17.55;9.07;;;15.10;99.90;;;;;;4995375;28;20042;-78
2023/05/14 07:15:09;;;;;;;16.40;8.87;;;15.30;99.90;;;;;;4964183;28;20465;-76
2023/05/14 07:17:35;;;;;;;16.70;9.32;;;15.50;99.90;;;;;;4997378;28;20086;-74
2023/05/14 07:20:00;;;;;;;16.45;9.07;;;15.60;99.90;;;;;;4997356;28;20088;-75
2023/05/14 07:22:26;;;;;;;16.88;9.18;;;15.60;99.90;;;;;;4979796;28;20097;-75
2023/05/14 07:24:52;;;;;;;15.95;8.82;;;15.60;99.90;;;;;;4997776;28;20057;-75
2023/05/14 07:27:17;;;;;;;17.92;8.80;;;15.80;99.90;;;;;;4980407;28;20128;-76
2023/05/14 07:29:43;;;;;;;18.65;9.55;;;15.90;99.90;;;;;;4997511;28;20368;-77
2023/05/14 07:32:09;;;;;;;17.48;9.73;;;16.10;99.90;;;;;;4980056;28;20371;-74
2023/05/14 07:34:35;;;;;;;18.20;8.40;;;16.20;99.90;;;;;;4997061;28;20057;-75
2023/05/14 07:37:01;;;;;;;20.88;9.75;;;16.20;99.90;;;;;;4980202;28;20371;-76
2023/05/14 07:39:26;;;;;;;15.75;8.38;;;16.40;99.90;;;;;;4996989;28;20054;-76
2023/05/14 07:41:55;;;;;;;16.58;8.98;;;16.60;99.90;;;;;;4996913;28;20049;-76
2023/05/14 07:44:20;;;;;;;16.02;9.23;;;16.50;99.90;;;;;;4979855;28;20050;-76
2023/05/14 07:46:46;;;;;;;15.68;8.85;;;16.60;99.90;;;;;;4996886;28;20046;-74
2023/05/14 07:49:12;;;;;;;13.85;8.57;;;16.70;99.90;;;;;;4979414;28;20050;-77
2023/05/14 07:51:38;;;;;;;16.58;9.05;;;16.90;99.90;;;;;;4996884;28;20390;-79
2023/05/14 07:54:04;;;;;;;19.42;8.57;;;17.00;99.90;;;;;;4996637;28;20502;-77
2023/05/14 07:56:30;;;;;;;17.05;8.55;;;17.10;99.90;;;;;;4978896;28;20132;-77
2023/05/14 07:58:56;;;;;;;18.73;9.10;;;17.10;99.90;;;;;;4979109;28;20162;-77
2023/05/14 08:01:22;;;;;;;14.43;8.57;;;17.10;99.90;;;;;;4997090;28;20046;-79
2023/05/14 08:03:48;;;;;;;15.70;8.83;;;17.30;99.90;;;;;;4997026;28;20500;-77
2023/05/14 08:06:13;;;;;;;17.13;9.02;;;17.30;99.90;;;;;;4963315;28;20073;-79
2023/05/14 08:08:39;;;;;;;16.02;8.38;;;17.30;99.90;;;;;;4979237;28;20057;-76
2023/05/14 08:11:05;;;;;;;17.02;9.35;;;17.10;99.90;;;;;;4979471;28;20058;-77
2023/05/14 08:13:31;;;;;;;14.88;8.02;;;17.20;99.90;;;;;;4996833;28;20109;-78
2023/05/14 08:15:57;;;;;;;15.10;8.73;;;17.20;99.90;;;;;;4979357;28;20065;-78
2023/05/14 08:18:23;;;;;;;17.25;8.70;;;17.20;99.90;;;;;;4979882;28;20129;-77
2023/05/14 08:20:48;;;;;;;18.57;8.87;;;17.20;99.90;;;;;;4962856;28;20065;-77
2023/05/14 08:23:14;;;;;;;16.70;8.40;;;17.40;99.90;;;;;;4962505;28;20050;-76
2023/05/14 08:25:40;;;;;;;18.80;9.00;;;17.30;99.90;;;;;;4995660;28;20054;-76
2023/05/14 08:28:06;;;;;;;15.38;8.52;;;17.30;99.90;;;;;;4979101;28;20042;-77
2023/05/14 08:30:32;;;;;;;19.25;8.13;;;17.40;99.90;;;;;;4996148;28;20133;-78
2023/05/14 08:32:58;;;;;;;14.20;8.17;;;17.30;99.90;;;;;;4979224;28;20133;-76
2023/05/14 08:35:24;;;;;;;16.45;8.45;;;17.50;99.90;;;;;;4978776;28;20076;-77
2023/05/14 08:37:51;;;;;;;18.40;9.33;;;17.60;99.90;;;;;;4979208;28;20054;-76
2023/05/14 08:40:17;;;;;;;14.13;7.90;;;17.50;99.90;;;;;;4996008;28;20038;-76
2023/05/14 08:42:43;;;;;;;12.73;8.32;;;17.70;99.90;;;;;;4962271;28;20042;-77
2023/05/14 08:45:20;;;;;;;15.32;8.30;;;17.80;99.90;;;;;;4995913;28;20073;-79
2023/05/14 08:47:48;;;;;;;;;;;18.10;99.90;;;;;;4963084;28;20089;-78
2023/05/14 08:50:14;;;;;;;17.10;8.05;;;18.40;99.90;;;;;;4995726;28;19928;-77
2023/05/14 08:52:40;;;;;;;16.00;7.68;;;18.50;99.90;;;;;;4996028;28;20046;-78
2023/05/14 08:55:06;;;;;;;12.00;8.30;;;18.40;99.90;;;;;;4962830;28;20389;-78
2023/05/14 08:57:33;;;;;;;19.50;8.05;;;18.60;99.90;;;;;;4998769;28;20054;-77
2023/05/14 09:00:00;;;;;;;14.32;7.22;;;18.60;99.90;;;;;;4979233;28;20230;-77
2023/05/14 09:02:30;;;;;;;15.13;7.57;;;18.70;99.90;;;;;;4981070;28;20051;-78
2023/05/14 09:04:58;;;;;;;18.08;7.15;;;18.70;99.90;;;;;;4996526;28;20054;-76
2023/05/14 09:07:24;;;;;;;13.88;7.10;;;18.70;99.90;;;;;;4996013;28;20474;-79
2023/05/14 09:09:51;;;;;;;15.27;7.40;;;18.50;99.90;;;;;;4995498;28;20085;-76
2023/05/14 09:12:18;;;;;;;19.05;8.25;;;18.60;99.90;;;;;;4995579;28;20079;-76
2023/05/14 09:14:45;;;;;;;14.32;7.90;;;18.70;99.90;;;;;;4995359;28;20129;-79
2023/05/14 09:17:11;;;;;;;14.20;8.10;;;18.70;99.90;;;;;;4995377;28;20093;-79
2023/05/14 09:19:42;;;;;;;14.48;7.55;;;18.70;99.90;;;;;;4995422;28;20046;-77
2023/05/14 09:22:10;;;;;;;15.68;7.63;;;18.70;99.90;;;;;;4995383;28;20514;-77
2023/05/14 09:24:37;;;;;;;15.52;7.40;;;18.50;99.90;;;;;;4978584;28;20042;-75
2023/05/14 09:27:04;;;;;;;13.10;6.95;;;18.50;99.90;;;;;;4961851;28;20408;-78
2023/05/14 09:29:30;;;;;;;11.63;6.70;;;18.70;99.90;;;;;;4977616;28;20053;-78
2023/05/14 09:31:59;;;;;;;16.50;6.88;;;18.90;99.90;;;;;;4995109;28;20049;-78
2023/05/14 09:34:30;;;;;;;15.10;7.18;;;19.10;99.90;;;;;;4977732;28;20571;-77
2023/05/14 09:36:58;;;;;;;16.20;7.43;;;19.10;99.90;;;;;;4994606;28;20078;-77
2023/05/14 09:39:25;;;;;;;15.50;7.95;;;19.20;99.90;;;;;;4978047;28;20050;-76
2023/05/14 09:41:51;;;;;;;10.23;7.40;;;18.80;99.90;;;;;;4995288;28;20086;-76
2023/05/14 09:44:18;;;;;;;14.55;7.40;;;19.10;99.90;;;;;;4977715;28;20051;-75
2023/05/14 09:46:44;;;;;;;14.05;7.38;;;19.30;99.90;;;;;;4994716;28;20050;-75
2023/05/14 09:49:10;;;;;;;13.80;7.53;;;19.20;99.90;;;;;;4995093;28;20054;-76
2023/05/14 09:51:37;;;;;;;13.47;6.87;;;19.20;99.90;;;;;;4994660;28;20133;-75
2023/05/14 09:54:03;;;;;;;;;;;19.20;99.90;;;;;;4995173;28;20049;-75
2023/05/14 09:56:29;;;;;;;11.23;7.28;;;19.40;99.90;;;;;;4977671;28;20378;-75
2023/05/14 09:58:55;;;;;;;15.43;7.90;;;19.40;99.90;;;;;;4961493;28;20101;-75
2023/05/14 10:01:22;;;;;;;13.63;7.30;;;19.30;99.90;;;;;;4961964;28;20100;-77
2023/05/14 10:03:48;;;;;;;11.40;6.85;;;19.30;99.90;;;;;;4995336;28;20089;-76
2023/05/14 10:06:16;;;;;;;13.57;7.53;;;19.40;99.90;;;;;;4977644;28;20100;-75
2023/05/14 10:08:47;;;;;;;17.17;7.00;;;19.50;99.90;;;;;;4977197;28;20055;-76
2023/05/14 10:11:16;;;;;;;13.30;8.00;;;19.60;99.90;;;;;;4978130;28;20481;-74
2023/05/14 10:14:03;;;;;;;12.38;7.13;;;19.60;99.90;;;;;;4978641;28;20108;-75
2023/05/14 10:16:46;;;;;;;14.45;7.93;;;19.40;99.90;;;;;;4979346;28;20144;-74
2023/05/14 10:19:15;;;;;;;14.35;8.02;;;19.50;99.90;;;;;;4978782;28;20046;-74
2023/05/14 10:21:44;;;;;;;13.30;7.80;;;19.60;99.90;;;;;;4996113;28;20125;-76
2023/05/14 10:24:11;;;;;;;13.75;8.68;;;19.60;99.90;;;;;;4978985;28;20479;-73
2023/05/14 10:26:39;;;;;;;15.13;8.65;;;19.50;99.90;;;;;;4995588;28;20109;-75
2023/05/14 10:29:12;;;;;;;14.75;8.57;;;19.50;99.90;;;;;;4978844;28;20459;-75
2023/05/14 10:31:46;;;;;;;15.55;8.93;;;19.30;99.90;;;;;;4995245;28;20042;-75
2023/05/14 10:34:37;;;;;;;16.30;8.75;;;19.40;99.90;;;;;;4977255;28;20046;-75
2023/05/14 10:37:09;;;;;;;17.52;8.88;;;19.80;99.90;;;;;;4977213;28;20438;-75
2023/05/14 10:39:43;;;;;;;15.32;7.47;;;19.80;99.90;;;;;;4961784;28;20058;-75
2023/05/14 10:42:27;;;;;;;14.50;7.63;;;20.00;99.90;;;;;;4993912;28;20133;-76
2023/05/14 10:44:57;;;;;;;13.77;6.22;;;;;;;;;;4960712;28;20051;-76
2023/05/14 10:47:23;;;;;;;15.43;6.10;;;;;;;;;;4978050;28;20065;-76
2023/05/14 10:49:52;;;;;;;13.77;7.30;;;;;;;;;;4998483;28;20053;-74
2023/05/14 10:52:19;;;;;;;14.15;6.93;;;;;;;;;;4964677;28;20050;-74
2023/05/14 10:54:49;;;;;;;13.18;6.72;;;;;;;;;;4980469;28;20053;-75
2023/05/14 10:57:16;;;;;;;12.38;6.72;;;;;;;;;;4997870;28;20108;-74
2023/05/14 10:59:43;;;;;;;14.40;6.90;;;;;;;;;;4981022;28;20416;-76
2023/05/14 11:02:22;;;;;;;11.43;7.22;;;;;;;;;;4997673;28;20042;-76
2023/05/14 11:04:56;;;;;;;15.05;7.45;;;;;;;;;;4998241;28;20093;-76
2023/05/14 11:07:24;;;;;;;12.20;6.80;;;;;;;;;;4997331;28;20145;-75
2023/05/14 11:09:51;;;;;;;14.07;6.75;;;;;;;;;;4980170;28;20403;-74
2023/05/14 11:12:18;;;;;;;18.33;10.10;;;;;;;;;;4980142;28;20397;-74
2023/05/14 11:14:44;;;;;;;9.85;5.75;;;;;;;;;;4997463;28;20395;-76
2023/05/14 11:17:11;;;;;;;10.57;5.70;;;;;;;;;;4997490;28;20042;-75
2023/05/14 11:19:37;;;;;;;9.98;6.28;;;;;;;;;;4980750;28;20108;-75
2023/05/14 11:22:03;;;;;;;10.80;5.30;;;;;;;;;;4997327;28;20082;-75
2023/05/14 11:24:29;;;;;;;10.27;5.10;;;;;;;;;;4997079;28;20046;-75
2023/05/14 11:26:55;;;;;;;11.00;5.78;;;;;;;;;;4980883;28;20067;-76
2023/05/14 11:29:21;;;;;;;12.30;6.55;;;;;;;;;;4997363;28;20046;-77
2023/05/14 11:31:48;;;;;;;10.00;5.50;;;;;;;;;;4997184;28;20042;-74
2023/05/14 11:34:14;;;;;;;10.25;5.63;;;;;;;;;;4997244;28;20132;-76
2023/05/14 11:36:41;;;;;;;12.43;6.05;;;;;;;;;;4979934;28;20093;-73
2023/05/14 11:39:07;;;;;;;9.50;5.32;;;;;;;;;;4948044;28;20058;-75
2023/05/14 11:41:33;;;;;;;11.00;5.60;;;;;;;;;;4980022;28;20490;-75
2023/05/14 11:43:59;;;;;;;14.55;5.38;;;;;;;;;;4979790;28;20085;-74
2023/05/14 11:46:27;;;;;;;9.93;4.43;;;;;;;;;;4979749;28;20093;-75
2023/05/14 11:48:53;;;;;;;9.57;5.03;;;;;;;;;;4979559;28;20054;-73
2023/05/14 11:51:21;;;;;;;10.68;4.80;;;;;;;;;;4996978;28;20046;-74
2023/05/14 11:53:48;;;;;;;10.77;5.40;;;;;;;;;;4980450;28;20368;-77
2023/05/14 11:56:14;;;;;;;12.07;4.65;;;;;;;;;;4997012;28;20046;-77
2023/05/14 11:58:40;;;;;;;10.63;4.75;;;;;;;;;;4979324;28;20054;-74
2023/05/14 12:01:06;;;;;;;6.47;3.75;;;;;;;;;;4979758;28;20106;-74
2023/05/14 12:03:32;;;;;;;9.23;3.65;;;;;;;;;;4996454;28;20593;-75
2023/05/14 12:05:59;;;;;;;8.75;3.78;;;;;;;;;;4996512;28;20136;-75
2023/05/14 12:08:25;;;;;;;;;;;;;;;;;;4979473;28;20061;-76
2023/05/14 12:10:52;;;;;;;14.35;3.83;;;;;;;;;;4979334;28;19922;-74
2023/05/14 12:13:19;;;;;;;9.13;3.97;;;;;;;;;;4996539;28;20050;-75
2023/05/14 12:15:53;;;;;;;15.05;3.58;;;;;;;;;;4963091;28;20089;-74
2023/05/14 12:18:20;;;;;;;8.43;3.58;;;;;;;;;;4996607;28;20049;-77
2023/05/14 12:20:46;;;;;;;7.20;3.20;;;;;;;;;;4979246;28;20474;-75
2023/05/14 12:23:13;;;;;;;9.50;3.67;;;;;;;;;;4996385;28;20050;-76
2023/05/14 12:25:39;;;;;;;9.45;3.95;;;;;;;;;;4996261;28;20105;-76
2023/05/14 12:28:15;;;;;;;9.43;4.40;;;;;;;;;;4979013;28;20050;-74
2023/05/14 12:30:41;;;;;;;7.82;4.38;;;22.60;93.40;;;;;;4979299;28;20508;-77
2023/05/14 12:33:06;;;;;;;9.33;3.70;;;22.20;93.50;;;;;;4978759;28;20129;-79
2023/05/14 12:35:32;;;;;;;6.67;3.47;;;22.50;94.60;;;;;;4962578;28;20097;-76
2023/05/14 12:37:58;;;;;;;4.83;3.00;;;22.70;95.10;;;;;;4996518;28;20058;-78
2023/05/14 12:40:23;;;;;;;8.27;3.90;;;22.80;95.00;;;;;;4996094;28;20047;-77
2023/05/14 12:42:49;;;;;;;5.50;3.60;;;23.00;94.40;;;;;;4995991;28;20487;-78
2023/05/14 12:45:15;;;;;;;9.43;3.80;;;23.10;93.70;;;;;;4963437;28;20100;-76